createdAt,value
2023-01-01T00:01:10.199Z,121.40
2023-01-01T00:04:15.252Z,129.90
2023-01-01T00:07:17.511Z,139.23
2023-01-01T00:10:29.019Z,146.77
2023-01-01T00:13:31.356Z,165.18
2023-01-01T00:16:33.915Z,165.00
2023-01-01T00:19:36.163Z,158.15
2023-01-01T00:22:55.718Z,159.63
2023-01-01T00:25:59.475Z,159.93
2023-01-01T00:29:02.363Z,146.90
2023-01-01T00:32:06.397Z,158.00
2023-01-01T00:35:11.368Z,168.68
2023-01-01T00:38:14.323Z,161.60
2023-01-01T00:41:18.220Z,187.15
2023-01-01T00:44:20.417Z,191.55
2023-01-01T00:47:23.043Z,200.07
2023-01-01T00:50:25.262Z,185.02
2023-01-01T00:53:27.847Z,175.87
2023-01-01T00:56:30.111Z,168.98
2023-01-01T00:59:32.607Z,159.95
2023-01-01T01:02:35.089Z,154.23
2023-01-01T01:05:38.848Z,165.00
2023-01-01T01:08:44.752Z,157.60
2023-01-01T01:11:47.802Z,145.12
2023-01-01T01:14:49.963Z,151.18
2023-01-01T01:17:52.372Z,146.65
2023-01-01T01:20:54.915Z,143.90
2023-01-01T01:24:02.317Z,147.50
2023-01-01T01:27:04.504Z,161.30
2023-01-01T01:30:07.688Z,145.68
2023-01-01T01:33:10.003Z,153.18
2023-01-01T01:36:13.662Z,160.73
2023-01-01T01:39:15.786Z,157.20
2023-01-01T01:42:18.785Z,141.85
2023-01-01T01:45:21.111Z,150.23
2023-01-01T01:48:24.335Z,147.48
2023-01-01T01:51:38.587Z,146.82
2023-01-01T01:54:41.803Z,134.73
2023-01-01T01:57:44.233Z,140.60
2023-01-01T02:00:47.730Z,150.82
2023-01-01T02:04:02.170Z,145.82
2023-01-01T02:07:04.675Z,149.98
2023-01-01T02:10:07.356Z,146.65
2023-01-01T02:13:10.388Z,153.60
2023-01-01T02:16:31.216Z,135.12
2023-01-01T02:19:55.460Z,125.87
2023-01-01T02:23:20.028Z,129.68
2023-01-01T02:26:48.500Z,131.12
2023-01-01T02:30:11.948Z,126.25
2023-01-01T02:33:20.117Z,138.85
2023-01-01T02:36:26.789Z,132.55
2023-01-01T02:39:33.095Z,142.68
2023-01-01T02:42:35.853Z,138.73
2023-01-01T02:45:38.306Z,144.60
2023-01-01T02:48:48.382Z,130.20
2023-01-01T02:52:16.296Z,125.53
2023-01-01T02:55:32.366Z,115.62
2023-01-01T02:59:14.023Z,104.85
2023-01-01T03:02:50.457Z,119.50
2023-01-01T03:06:19.288Z,139.88
2023-01-01T03:09:47.733Z,148.80
2023-01-01T03:12:56.827Z,128.27
2023-01-01T03:16:06.109Z,113.28
2023-01-01T03:19:19.594Z,112.60
2023-01-01T03:22:30.645Z,128.40
2023-01-01T03:25:37.619Z,134.15
2023-01-01T03:28:51.706Z,154.20
2023-01-01T03:31:56.919Z,122.18
2023-01-01T03:34:59.885Z,132.50
2023-01-01T03:38:05.744Z,143.68
2023-01-01T03:41:13.259Z,108.57
2023-01-01T03:44:23.038Z,117.68
2023-01-01T03:47:25.588Z,129.45
2023-01-01T03:50:48.955Z,134.65
2023-01-01T03:53:57.174Z,168.23
2023-01-01T03:57:24.411Z,198.62
2023-01-01T04:00:34.212Z,179.10
2023-01-01T04:03:38.921Z,249.80
2023-01-01T04:06:41.295Z,259.27
2023-01-01T04:09:49.915Z,276.05
2023-01-01T04:12:55.607Z,183.17
2023-01-01T04:15:58.053Z,204.25
2023-01-01T04:19:03.352Z,199.40
2023-01-01T04:22:05.918Z,218.20
2023-01-01T04:25:09.603Z,190.40
2023-01-01T04:28:12.085Z,194.55
2023-01-01T04:31:14.966Z,162.23
2023-01-01T04:34:17.702Z,157.90
2023-01-01T04:37:19.924Z,134.23
2023-01-01T04:40:22.416Z,160.45
2023-01-01T04:43:24.631Z,158.37
2023-01-01T04:46:27.387Z,130.63
2023-01-01T04:49:29.599Z,208.50
2023-01-01T04:52:32.016Z,145.40
2023-01-01T04:55:34.205Z,166.90
2023-01-01T04:58:37.959Z,164.10
2023-01-01T05:01:40.258Z,119.72
2023-01-01T05:04:42.763Z,163.25
2023-01-01T05:07:45.647Z,147.85
2023-01-01T05:10:48.204Z,153.40
2023-01-01T05:13:52.278Z,159.00
2023-01-01T05:16:54.756Z,153.68
2023-01-01T05:19:56.979Z,111.93
2023-01-01T05:22:59.484Z,147.18
2023-01-01T05:26:15.768Z,175.87
2023-01-01T05:29:19.647Z,113.18
2023-01-01T05:32:21.856Z,135.18
2023-01-01T05:35:26.508Z,146.13
2023-01-01T05:38:29.477Z,162.82
2023-01-01T05:41:34.046Z,158.30
2023-01-01T05:44:36.190Z,149.25
2023-01-01T05:47:38.614Z,135.18
2023-01-01T05:50:40.871Z,141.62
2023-01-01T05:53:44.605Z,134.45
2023-01-01T05:56:46.763Z,131.37
2023-01-01T05:59:49.307Z,135.45
2023-01-01T06:02:54.785Z,113.15
2023-01-01T06:05:57.342Z,110.28
2023-01-01T06:09:01.918Z,121.90
2023-01-01T06:12:05.031Z,116.80
2023-01-01T06:15:09.931Z,115.72
2023-01-01T06:18:12.475Z,117.50
2023-01-01T06:21:17.287Z,122.72
2023-01-01T06:24:19.788Z,140.62
2023-01-01T06:27:21.960Z,193.13
2023-01-01T06:30:24.399Z,165.10
2023-01-01T06:33:26.600Z,134.10
2023-01-01T06:36:29.062Z,113.12
2023-01-01T06:39:31.232Z,139.73
2023-01-01T06:42:34.123Z,132.50
2023-01-01T06:45:36.446Z,118.15
2023-01-01T06:48:38.841Z,131.05
2023-01-01T06:51:43.634Z,112.62
2023-01-01T06:54:46.080Z,131.20
2023-01-01T06:57:52.036Z,157.98
2023-01-01T07:00:54.641Z,188.95
2023-01-01T07:03:59.600Z,186.23
2023-01-01T07:07:02.119Z,157.77
2023-01-01T07:10:04.591Z,161.35
2023-01-01T07:13:07.112Z,156.55
2023-01-01T07:16:13.157Z,164.15
2023-01-01T07:19:15.978Z,178.15
2023-01-01T07:22:18.143Z,144.43
2023-01-01T07:25:20.655Z,176.45
2023-01-01T07:28:24.243Z,145.02
2023-01-01T07:31:26.864Z,148.38
2023-01-01T07:34:29.074Z,137.15
2023-01-01T07:37:31.584Z,124.47
2023-01-01T07:40:34.060Z,102.40
2023-01-01T07:43:36.553Z,141.62
2023-01-01T07:46:39.064Z,100.60
2023-01-01T07:49:41.571Z,150.82
2023-01-01T07:52:43.845Z,146.15
2023-01-01T07:55:46.456Z,135.65
2023-01-01T07:58:48.560Z,116.35
2023-01-01T08:01:51.071Z,117.13
2023-01-01T08:04:53.598Z,93.70
2023-01-01T08:07:56.120Z,102.82
2023-01-01T08:11:04.159Z,100.87
2023-01-01T08:14:06.626Z,128.23
2023-01-01T08:17:09.096Z,177.87
2023-01-01T08:20:11.366Z,151.57
2023-01-01T08:23:13.764Z,132.90
2023-01-01T08:26:16.986Z,98.82
2023-01-01T08:29:20.132Z,77.62
2023-01-01T08:32:22.376Z,82.72
2023-01-01T08:35:24.899Z,58.20
2023-01-01T08:38:27.146Z,67.03
2023-01-01T08:41:29.568Z,62.85
2023-01-01T08:44:31.731Z,64.97
2023-01-01T08:47:34.315Z,57.38
2023-01-01T08:50:36.996Z,60.33
2023-01-01T08:53:39.695Z,66.85
2023-01-01T08:56:43.351Z,58.33
2023-01-01T08:59:45.801Z,57.62
2023-01-01T09:02:48.101Z,58.75
2023-01-01T09:05:50.608Z,62.17
2023-01-01T09:08:52.814Z,55.92
2023-01-01T09:11:59.087Z,59.28
2023-01-01T09:15:01.238Z,54.33
2023-01-01T09:18:03.884Z,58.22
2023-01-01T09:21:06.280Z,51.58
2023-01-01T09:24:08.868Z,62.13
2023-01-01T09:27:11.111Z,53.30
2023-01-01T09:30:14.019Z,50.47
2023-01-01T09:33:16.156Z,50.85
2023-01-01T09:36:18.490Z,45.28
2023-01-01T09:39:20.730Z,49.70
2023-01-01T09:42:39.767Z,48.75
2023-01-01T09:46:06.916Z,43.90
2023-01-01T09:49:16.545Z,39.33
2023-01-01T09:52:20.067Z,45.28
2023-01-01T09:55:59.455Z,42.25
2023-01-01T09:59:02.740Z,46.35
2023-01-01T10:02:20.549Z,51.15
2023-01-01T10:05:46.288Z,47.72
2023-01-01T10:09:02.128Z,44.80
2023-01-01T10:12:15.817Z,43.72
2023-01-01T10:15:27.231Z,41.60
2023-01-01T10:18:34.733Z,42.15
2023-01-01T10:21:47.294Z,43.75
2023-01-01T10:24:57.629Z,43.42
2023-01-01T10:28:04.815Z,41.55
2023-01-01T10:31:26.330Z,36.67
2023-01-01T10:34:29.147Z,38.65
2023-01-01T10:37:35.945Z,38.53
2023-01-01T10:40:39.774Z,41.22
2023-01-01T10:43:42.969Z,37.33
2023-01-01T10:46:51.697Z,39.78
2023-01-01T10:53:03.497Z,36.33
2023-01-01T10:56:19.133Z,34.08
2023-01-01T10:59:38.608Z,39.72
2023-01-01T11:02:41.227Z,40.33
2023-01-01T11:06:02.870Z,36.10
2023-01-01T11:09:37.004Z,33.75
2023-01-01T11:13:04.818Z,36.88
2023-01-01T11:16:02.404Z,33.10
2023-01-01T11:19:07.041Z,41.47
2023-01-01T11:22:35.351Z,38.90
2023-01-01T11:25:37.516Z,44.60
2023-01-01T11:28:41.718Z,41.13
2023-01-01T11:31:47.958Z,41.37
2023-01-01T11:35:07.969Z,34.78
2023-01-01T11:38:21.993Z,36.03
2023-01-01T11:41:27.654Z,42.17
2023-01-01T11:44:40.721Z,37.13
2023-01-01T11:47:44.404Z,38.20
2023-01-01T11:50:55.458Z,34.72
2023-01-01T11:54:37.326Z,41.63
2023-01-01T11:57:44.601Z,45.28
2023-01-01T12:00:51.095Z,32.90
2023-01-01T12:04:01.477Z,40.58
2023-01-01T12:07:08.331Z,42.90
2023-01-01T12:10:23.234Z,41.63
2023-01-01T12:13:29.810Z,38.33
2023-01-01T12:16:52.760Z,36.28
2023-01-01T12:20:50.647Z,39.55
2023-01-01T12:23:53.139Z,36.83
2023-01-01T12:27:16.797Z,38.05
2023-01-01T12:30:19.220Z,34.47
2023-01-01T12:33:27.553Z,39.15
2023-01-01T12:36:52.620Z,34.67
2023-01-01T12:40:00.704Z,36.35
2023-01-01T12:43:23.560Z,36.35
2023-01-01T12:46:43.013Z,30.65
2023-01-01T12:50:22.968Z,32.83
2023-01-01T12:53:32.085Z,33.90
2023-01-01T12:56:49.568Z,35.92
2023-01-01T12:59:52.708Z,27.80
2023-01-01T13:03:00.907Z,30.70
2023-01-01T13:06:04.583Z,29.52
2023-01-01T13:09:23.903Z,33.03
2023-01-01T13:12:26.774Z,30.45
2023-01-01T13:15:38.673Z,36.67
2023-01-01T13:18:40.896Z,37.88
2023-01-01T13:21:43.483Z,34.78
2023-01-01T13:25:11.417Z,36.05
2023-01-01T13:28:14.803Z,34.13
2023-01-01T13:31:17.228Z,33.65
2023-01-01T13:34:42.014Z,41.20
2023-01-01T13:37:45.230Z,38.33
2023-01-01T13:40:50.276Z,37.78
2023-01-01T13:44:03.026Z,38.28
2023-01-01T13:47:05.557Z,40.28
2023-01-01T13:50:27.082Z,44.33
2023-01-01T13:54:06.325Z,33.30
2023-01-01T13:57:35.680Z,37.85
2023-01-01T14:01:01.238Z,34.72
2023-01-01T14:04:08.541Z,32.65
2023-01-01T14:07:50.656Z,41.47
2023-01-01T14:10:54.280Z,40.05
2023-01-01T14:13:56.464Z,38.67
2023-01-01T14:17:01.785Z,31.33
2023-01-01T14:20:08.033Z,37.17
2023-01-01T14:23:19.357Z,37.75
2023-01-01T14:26:25.512Z,37.35
2023-01-01T14:29:30.861Z,37.47
2023-01-01T14:32:33.581Z,36.65
2023-01-01T14:35:35.998Z,42.60
2023-01-01T14:38:44.333Z,36.75
2023-01-01T14:41:46.848Z,34.63
2023-01-01T14:44:50.427Z,36.85
2023-01-01T14:47:55.957Z,30.62
2023-01-01T14:51:00.255Z,40.63
2023-01-01T14:54:04.766Z,32.60
2023-01-01T14:57:23.676Z,31.95
2023-01-01T15:00:29.654Z,37.38
2023-01-01T15:03:32.107Z,31.15
2023-01-01T15:06:40.767Z,32.55
2023-01-01T15:09:42.928Z,32.92
2023-01-01T15:12:45.401Z,32.08
2023-01-01T15:16:17.797Z,34.15
2023-01-01T15:19:23.217Z,30.73
2023-01-01T15:22:31.149Z,29.92
2023-01-01T15:25:36.208Z,28.77
2023-01-01T15:28:42.245Z,32.25
2023-01-01T15:31:49.612Z,31.52
2023-01-01T15:34:58.236Z,28.40
2023-01-01T15:38:11.869Z,26.40
2023-01-01T15:41:36.097Z,27.45
2023-01-01T15:44:38.575Z,32.08
2023-01-01T15:47:41.624Z,35.92
2023-01-01T15:50:50.126Z,29.63
2023-01-01T15:54:01.388Z,26.03
2023-01-01T15:57:04.079Z,27.48
2023-01-01T16:00:06.746Z,26.50
2023-01-01T16:03:22.307Z,26.98
2023-01-01T16:06:24.803Z,30.42
2023-01-01T16:09:27.005Z,30.75
2023-01-01T16:12:29.884Z,21.45
2023-01-01T16:15:32.071Z,27.60
2023-01-01T16:18:37.157Z,26.40
2023-01-01T16:21:39.425Z,25.88
2023-01-01T16:24:43.963Z,25.60
2023-01-01T16:27:46.929Z,28.30
2023-01-01T16:30:49.941Z,29.23
2023-01-01T16:33:57.587Z,28.83
2023-01-01T16:37:00.134Z,31.08
2023-01-01T16:40:02.458Z,31.83
2023-01-01T16:43:09.418Z,37.20
2023-01-01T16:46:13.632Z,31.73
2023-01-01T16:49:16.341Z,37.25
2023-01-01T16:52:18.957Z,34.20
2023-01-01T16:55:21.421Z,35.10
2023-01-01T16:58:49.048Z,33.75
2023-01-01T17:01:46.149Z,33.33
2023-01-01T17:04:48.344Z,32.20
2023-01-01T17:07:52.220Z,35.03
2023-01-01T17:11:10.178Z,36.28
2023-01-01T17:14:14.065Z,33.78
2023-01-01T17:17:16.249Z,35.55
2023-01-01T17:20:18.735Z,32.55
2023-01-01T17:23:21.011Z,37.90
2023-01-01T17:26:26.295Z,33.65
2023-01-01T17:29:28.533Z,42.70
2023-01-01T17:32:34.531Z,33.78
2023-01-01T17:35:38.144Z,32.15
2023-01-01T17:38:40.955Z,33.00
2023-01-01T17:41:44.498Z,31.02
2023-01-01T17:44:46.925Z,31.25
2023-01-01T17:47:49.066Z,31.85
2023-01-01T17:50:51.507Z,36.10
2023-01-01T17:53:55.027Z,32.13
2023-01-01T17:57:03.230Z,32.85
2023-01-01T18:00:10.003Z,36.93
2023-01-01T18:03:16.074Z,30.30
2023-01-01T18:06:18.778Z,29.85
2023-01-01T18:09:22.247Z,32.75
2023-01-01T18:12:24.779Z,36.45
2023-01-01T18:15:27.150Z,32.80
2023-01-01T18:18:30.873Z,33.00
2023-01-01T18:21:34.028Z,37.80
2023-01-01T18:24:36.582Z,35.78
2023-01-01T18:27:39.081Z,34.97
2023-01-01T18:30:41.487Z,33.67
2023-01-01T18:33:44.330Z,32.03
2023-01-01T18:36:47.113Z,33.20
2023-01-01T18:39:49.821Z,30.70
2023-01-01T18:42:52.232Z,37.67
2023-01-01T18:45:55.555Z,42.20
2023-01-01T18:49:00.086Z,37.28
2023-01-01T18:52:08.222Z,32.00
2023-01-01T18:55:10.739Z,33.92
2023-01-01T18:58:24.310Z,35.78
2023-01-01T19:01:26.903Z,39.47
2023-01-01T19:04:29.143Z,35.58
2023-01-01T19:07:31.544Z,34.90
2023-01-01T19:10:51.045Z,36.22
2023-01-01T19:14:02.685Z,42.47
2023-01-01T19:17:13.196Z,41.97
2023-01-01T19:20:18.104Z,40.60
2023-01-01T19:23:23.390Z,36.65
2023-01-01T19:26:31.723Z,37.35
2023-01-01T19:29:40.200Z,33.80
2023-01-01T19:35:47.369Z,40.08
2023-01-01T19:38:51.410Z,43.28
2023-01-01T19:41:53.537Z,43.40
2023-01-01T19:44:56.007Z,40.05
2023-01-01T19:47:58.112Z,43.20
2023-01-01T19:51:00.715Z,39.30
2023-01-01T19:54:02.990Z,41.55
2023-01-01T19:57:05.512Z,41.10
2023-01-01T20:00:08.462Z,37.75
2023-01-01T20:06:37.825Z,42.25
2023-01-01T20:09:40.066Z,41.30
2023-01-01T20:12:42.603Z,38.70
2023-01-01T20:15:46.907Z,40.00
2023-01-01T20:18:49.604Z,36.25
2023-01-01T20:22:10.430Z,41.17
2023-01-01T20:25:12.957Z,44.78
2023-01-01T20:28:33.584Z,40.70
2023-01-01T20:31:36.455Z,36.33
2023-01-01T20:34:42.363Z,40.70
2023-01-01T20:37:44.856Z,39.22
2023-01-01T20:40:47.009Z,46.58
2023-01-01T20:43:56.131Z,38.83
2023-01-01T20:46:58.421Z,39.15
2023-01-01T20:50:00.907Z,43.03
2023-01-01T20:53:03.055Z,42.92
2023-01-01T20:56:05.999Z,43.00
2023-01-01T20:59:33.661Z,43.22
2023-01-01T21:02:32.469Z,41.40
2023-01-01T21:05:34.822Z,45.10
2023-01-01T21:08:37.323Z,39.08
2023-01-01T21:11:40.308Z,40.67
2023-01-01T21:14:42.803Z,41.00
2023-01-01T21:17:45.071Z,41.35
2023-01-01T21:20:49.048Z,44.03
2023-01-01T21:23:53.724Z,51.88
2023-01-01T21:27:11.279Z,40.28
2023-01-01T21:30:13.895Z,46.75
2023-01-01T21:33:25.263Z,47.05
2023-01-01T21:36:29.838Z,38.45
2023-01-01T21:39:32.310Z,46.20
2023-01-01T21:42:34.471Z,39.97
2023-01-01T21:45:44.159Z,42.53
2023-01-01T21:48:52.611Z,43.90
2023-01-01T21:51:59.753Z,44.78
2023-01-01T21:55:01.937Z,44.65
2023-01-01T21:58:29.929Z,40.58
2023-01-01T22:01:44.551Z,46.80
2023-01-01T22:04:48.906Z,40.65
2023-01-01T22:07:58.770Z,47.62
2023-01-01T22:11:01.419Z,39.25
2023-01-01T22:14:11.289Z,37.47
2023-01-01T22:17:19.816Z,43.78
2023-01-01T22:20:23.825Z,49.67
2023-01-01T22:23:39.871Z,42.78
2023-01-01T22:26:42.177Z,42.40
2023-01-01T22:29:45.339Z,43.87
2023-01-01T22:32:52.041Z,42.05
2023-01-01T22:35:56.556Z,39.92
2023-01-01T22:39:01.959Z,46.90
2023-01-01T22:42:04.492Z,39.60
2023-01-01T22:45:14.732Z,39.17
2023-01-01T22:48:26.834Z,45.05
2023-01-01T22:51:38.326Z,43.67
2023-01-01T22:54:40.836Z,38.22
2023-01-01T22:57:43.048Z,44.97
2023-01-01T23:00:45.805Z,39.63
2023-01-01T23:03:47.978Z,41.00
2023-01-01T23:06:50.518Z,44.20
2023-01-01T23:09:52.753Z,45.88
2023-01-01T23:12:55.186Z,41.85
2023-01-01T23:16:00.326Z,37.03
2023-01-01T23:19:04.005Z,45.05
2023-01-01T23:22:06.332Z,47.75
2023-01-01T23:25:11.640Z,43.10
2023-01-01T23:28:13.903Z,42.22
2023-01-01T23:31:24.470Z,45.20
2023-01-01T23:34:28.498Z,46.35
2023-01-01T23:37:32.232Z,45.88
2023-01-01T23:40:34.373Z,43.13
2023-01-01T23:43:43.177Z,44.40
2023-01-01T23:49:48.500Z,39.47
2023-01-01T23:52:50.721Z,40.33
2023-01-01T23:55:53.181Z,42.35
2023-01-01T23:58:55.428Z,44.78
